sensor_id;sensor_type;location;lat;lon;timestamp;P1;durP1;ratioP1;P2;durP2;ratioP2
66189;SDS011;52992;52.084;5.412;2023-02-03T00:01:57;11.27;;;3.10;;
66189;SDS011;52992;52.084;5.412;2023-02-03T00:04:24;8.73;;;4.03;;
66189;SDS011;52992;52.084;5.412;2023-02-03T00:06:50;12.53;;;3.30;;
66189;SDS011;52992;52.084;5.412;2023-02-03T00:09:17;9.23;;;3.23;;
66189;SDS011;52992;52.084;5.412;2023-02-03T00:11:45;10.50;;;3.30;;
66189;SDS011;52992;52.084;5.412;2023-02-03T00:14:12;7.70;;;3.10;;
66189;SDS011;52992;52.084;5.412;2023-02-03T00:16:39;8.17;;;3.20;;
66189;SDS011;52992;52.084;5.412;2023-02-03T00:19:05;8.00;;;2.80;;
66189;SDS011;52992;52.084;5.412;2023-02-03T00:21:32;10.70;;;2.83;;
66189;SDS011;52992;52.084;5.412;2023-02-03T00:23:59;9.43;;;2.67;;
66189;SDS011;52992;52.084;5.412;2023-02-03T00:26:26;11.07;;;2.57;;
66189;SDS011;52992;52.084;5.412;2023-02-03T00:28:54;6.73;;;3.07;;
66189;SDS011;52992;52.084;5.412;2023-02-03T00:31:21;14.17;;;3.40;;
66189;SDS011;52992;52.084;5.412;2023-02-03T00:33:53;8.60;;;3.33;;
66189;SDS011;52992;52.084;5.412;2023-02-03T00:36:21;11.23;;;3.00;;
66189;SDS011;52992;52.084;5.412;2023-02-03T00:38:49;8.27;;;2.57;;
66189;SDS011;52992;52.084;5.412;2023-02-03T00:41:16;6.50;;;2.87;;
66189;SDS011;52992;52.084;5.412;2023-02-03T00:43:43;11.57;;;2.80;;
66189;SDS011;52992;52.084;5.412;2023-02-03T00:46:10;10.37;;;3.43;;
66189;SDS011;52992;52.084;5.412;2023-02-03T00:48:37;7.97;;;3.87;;
66189;SDS011;52992;52.084;5.412;2023-02-03T00:51:04;7.17;;;2.87;;
66189;SDS011;52992;52.084;5.412;2023-02-03T00:53:32;13.17;;;2.90;;
66189;SDS011;52992;52.084;5.412;2023-02-03T00:55:59;6.43;;;3.10;;
66189;SDS011;52992;52.084;5.412;2023-02-03T00:58:26;15.03;;;3.30;;
66189;SDS011;52992;52.084;5.412;2023-02-03T01:00:54;6.40;;;2.53;;
66189;SDS011;52992;52.084;5.412;2023-02-03T01:03:23;11.23;;;3.53;;
66189;SDS011;52992;52.084;5.412;2023-02-03T01:05:50;12.67;;;3.27;;
66189;SDS011;52992;52.084;5.412;2023-02-03T01:08:18;8.97;;;2.83;;
66189;SDS011;52992;52.084;5.412;2023-02-03T01:10:44;10.77;;;3.20;;
66189;SDS011;52992;52.084;5.412;2023-02-03T01:13:11;14.03;;;3.50;;
66189;SDS011;52992;52.084;5.412;2023-02-03T01:15:44;10.57;;;2.97;;
66189;SDS011;52992;52.084;5.412;2023-02-03T01:18:12;10.20;;;3.27;;
66189;SDS011;52992;52.084;5.412;2023-02-03T01:20:39;7.47;;;3.10;;
66189;SDS011;52992;52.084;5.412;2023-02-03T01:23:06;8.23;;;2.40;;
66189;SDS011;52992;52.084;5.412;2023-02-03T01:25:34;8.37;;;2.80;;
66189;SDS011;52992;52.084;5.412;2023-02-03T01:28:01;5.33;;;2.57;;
66189;SDS011;52992;52.084;5.412;2023-02-03T01:30:28;5.43;;;2.43;;
66189;SDS011;52992;52.084;5.412;2023-02-03T01:32:55;8.03;;;2.43;;
66189;SDS011;52992;52.084;5.412;2023-02-03T01:35:23;4.10;;;2.20;;
66189;SDS011;52992;52.084;5.412;2023-02-03T01:37:50;7.20;;;2.63;;
66189;SDS011;52992;52.084;5.412;2023-02-03T01:40:17;7.93;;;2.83;;
66189;SDS011;52992;52.084;5.412;2023-02-03T01:42:44;11.20;;;2.90;;
66189;SDS011;52992;52.084;5.412;2023-02-03T01:45:11;8.97;;;3.27;;
66189;SDS011;52992;52.084;5.412;2023-02-03T01:47:42;3.37;;;2.30;;
66189;SDS011;52992;52.084;5.412;2023-02-03T01:50:17;7.50;;;2.40;;
66189;SDS011;52992;52.084;5.412;2023-02-03T01:52:50;7.87;;;3.40;;
66189;SDS011;52992;52.084;5.412;2023-02-03T01:55:23;9.80;;;2.73;;
66189;SDS011;52992;52.084;5.412;2023-02-03T01:57:56;10.37;;;2.57;;
66189;SDS011;52992;52.084;5.412;2023-02-03T02:00:31;8.17;;;2.53;;
66189;SDS011;52992;52.084;5.412;2023-02-03T02:02:58;6.00;;;2.23;;
66189;SDS011;52992;52.084;5.412;2023-02-03T02:05:30;9.60;;;2.30;;
66189;SDS011;52992;52.084;5.412;2023-02-03T02:08:00;7.70;;;2.30;;
66189;SDS011;52992;52.084;5.412;2023-02-03T02:10:29;9.13;;;2.60;;
66189;SDS011;52992;52.084;5.412;2023-02-03T02:12:57;6.00;;;1.90;;
66189;SDS011;52992;52.084;5.412;2023-02-03T02:15:31;7.60;;;2.10;;
66189;SDS011;52992;52.084;5.412;2023-02-03T02:24:29;8.30;;;2.40;;
66189;SDS011;52992;52.084;5.412;2023-02-03T02:27:15;5.90;;;1.97;;
66189;SDS011;52992;52.084;5.412;2023-02-03T02:29:54;10.27;;;1.83;;
66189;SDS011;52992;52.084;5.412;2023-02-03T02:40:51;6.77;;;1.90;;
66189;SDS011;52992;52.084;5.412;2023-02-03T02:46:02;5.93;;;1.83;;
66189;SDS011;52992;52.084;5.412;2023-02-03T02:51:11;6.93;;;1.80;;
66189;SDS011;52992;52.084;5.412;2023-02-03T02:53:44;6.60;;;2.23;;
66189;SDS011;52992;52.084;5.412;2023-02-03T02:56:18;7.47;;;2.13;;
66189;SDS011;52992;52.084;5.412;2023-02-03T02:58:47;5.67;;;1.80;;
66189;SDS011;52992;52.084;5.412;2023-02-03T03:01:15;5.83;;;2.00;;
66189;SDS011;52992;52.084;5.412;2023-02-03T03:03:43;6.17;;;1.57;;
66189;SDS011;52992;52.084;5.412;2023-02-03T03:06:16;6.67;;;1.93;;
66189;SDS011;52992;52.084;5.412;2023-02-03T03:11:42;5.00;;;2.10;;
66189;SDS011;52992;52.084;5.412;2023-02-03T03:14:17;7.97;;;1.90;;
66189;SDS011;52992;52.084;5.412;2023-02-03T03:16:49;7.93;;;1.87;;
66189;SDS011;52992;52.084;5.412;2023-02-03T03:19:26;7.03;;;1.97;;
66189;SDS011;52992;52.084;5.412;2023-02-03T03:21:59;5.50;;;1.93;;
66189;SDS011;52992;52.084;5.412;2023-02-03T03:24:34;3.00;;;1.97;;
66189;SDS011;52992;52.084;5.412;2023-02-03T03:27:14;6.03;;;1.70;;
66189;SDS011;52992;52.084;5.412;2023-02-03T03:29:52;5.87;;;1.97;;
66189;SDS011;52992;52.084;5.412;2023-02-03T03:32:40;4.20;;;1.70;;
66189;SDS011;52992;52.084;5.412;2023-02-03T03:35:07;3.30;;;1.90;;
66189;SDS011;52992;52.084;5.412;2023-02-03T03:37:48;3.50;;;1.50;;
66189;SDS011;52992;52.084;5.412;2023-02-03T03:40:23;5.57;;;2.23;;
66189;SDS011;52992;52.084;5.412;2023-02-03T03:43:02;7.43;;;2.23;;
66189;SDS011;52992;52.084;5.412;2023-02-03T03:48:51;6.20;;;1.77;;
66189;SDS011;52992;52.084;5.412;2023-02-03T03:51:33;3.17;;;1.90;;
66189;SDS011;52992;52.084;5.412;2023-02-03T03:54:06;6.17;;;2.57;;
66189;SDS011;52992;52.084;5.412;2023-02-03T03:56:56;5.73;;;1.83;;
66189;SDS011;52992;52.084;5.412;2023-02-03T03:59:27;8.20;;;1.80;;
66189;SDS011;52992;52.084;5.412;2023-02-03T04:01:57;5.50;;;2.03;;
66189;SDS011;52992;52.084;5.412;2023-02-03T04:04:30;4.70;;;1.93;;
66189;SDS011;52992;52.084;5.412;2023-02-03T04:06:59;3.20;;;1.57;;
66189;SDS011;52992;52.084;5.412;2023-02-03T04:09:25;4.33;;;1.67;;
66189;SDS011;52992;52.084;5.412;2023-02-03T04:11:52;3.70;;;1.90;;
66189;SDS011;52992;52.084;5.412;2023-02-03T04:14:33;6.83;;;2.00;;
66189;SDS011;52992;52.084;5.412;2023-02-03T04:17:01;7.00;;;2.33;;
66189;SDS011;52992;52.084;5.412;2023-02-03T04:19:27;7.80;;;2.03;;
66189;SDS011;52992;52.084;5.412;2023-02-03T04:21:55;7.23;;;2.27;;
66189;SDS011;52992;52.084;5.412;2023-02-03T04:24:22;7.07;;;2.00;;
66189;SDS011;52992;52.084;5.412;2023-02-03T04:26:48;5.40;;;2.07;;
66189;SDS011;52992;52.084;5.412;2023-02-03T04:29:15;3.70;;;1.70;;
66189;SDS011;52992;52.084;5.412;2023-02-03T04:31:42;4.90;;;1.87;;
66189;SDS011;52992;52.084;5.412;2023-02-03T04:34:09;9.33;;;1.80;;
66189;SDS011;52992;52.084;5.412;2023-02-03T04:36:36;2.60;;;1.50;;
66189;SDS011;52992;52.084;5.412;2023-02-03T04:39:03;9.57;;;1.67;;
66189;SDS011;52992;52.084;5.412;2023-02-03T04:41:29;5.47;;;1.80;;
66189;SDS011;52992;52.084;5.412;2023-02-03T04:43:56;4.80;;;1.77;;
66189;SDS011;52992;52.084;5.412;2023-02-03T04:46:23;9.43;;;1.83;;
66189;SDS011;52992;52.084;5.412;2023-02-03T04:48:50;7.33;;;2.00;;
66189;SDS011;52992;52.084;5.412;2023-02-03T04:51:17;8.73;;;2.03;;
66189;SDS011;52992;52.084;5.412;2023-02-03T04:53:44;2.80;;;1.50;;
66189;SDS011;52992;52.084;5.412;2023-02-03T04:56:10;8.47;;;2.17;;
66189;SDS011;52992;52.084;5.412;2023-02-03T04:58:37;1.90;;;1.33;;
66189;SDS011;52992;52.084;5.412;2023-02-03T05:01:05;2.43;;;1.63;;
66189;SDS011;52992;52.084;5.412;2023-02-03T05:03:34;5.73;;;1.50;;
66189;SDS011;52992;52.084;5.412;2023-02-03T05:06:01;3.67;;;1.60;;
66189;SDS011;52992;52.084;5.412;2023-02-03T05:08:28;3.70;;;1.67;;
66189;SDS011;52992;52.084;5.412;2023-02-03T05:10:55;5.33;;;1.63;;
66189;SDS011;52992;52.084;5.412;2023-02-03T05:13:23;3.90;;;1.60;;
66189;SDS011;52992;52.084;5.412;2023-02-03T05:15:50;5.40;;;1.40;;
66189;SDS011;52992;52.084;5.412;2023-02-03T05:18:17;5.37;;;1.83;;
66189;SDS011;52992;52.084;5.412;2023-02-03T05:20:43;5.57;;;1.43;;
66189;SDS011;52992;52.084;5.412;2023-02-03T05:23:10;6.73;;;1.70;;
66189;SDS011;52992;52.084;5.412;2023-02-03T05:25:37;7.50;;;1.97;;
66189;SDS011;52992;52.084;5.412;2023-02-03T05:28:04;5.07;;;1.80;;
66189;SDS011;52992;52.084;5.412;2023-02-03T05:30:31;3.60;;;1.50;;
66189;SDS011;52992;52.084;5.412;2023-02-03T05:32:57;5.13;;;1.60;;
66189;SDS011;52992;52.084;5.412;2023-02-03T05:35:24;7.10;;;1.53;;
66189;SDS011;52992;52.084;5.412;2023-02-03T05:37:51;4.47;;;1.50;;
66189;SDS011;52992;52.084;5.412;2023-02-03T05:40:18;5.57;;;1.50;;
66189;SDS011;52992;52.084;5.412;2023-02-03T05:43:03;8.07;;;1.93;;
66189;SDS011;52992;52.084;5.412;2023-02-03T05:45:30;5.03;;;1.50;;
66189;SDS011;52992;52.084;5.412;2023-02-03T05:47:57;7.27;;;2.00;;
66189;SDS011;52992;52.084;5.412;2023-02-03T05:50:24;5.70;;;1.43;;
66189;SDS011;52992;52.084;5.412;2023-02-03T05:53:05;6.90;;;2.00;;
66189;SDS011;52992;52.084;5.412;2023-02-03T05:55:33;5.33;;;1.57;;
66189;SDS011;52992;52.084;5.412;2023-02-03T05:58:01;5.90;;;1.57;;
66189;SDS011;52992;52.084;5.412;2023-02-03T06:00:28;3.43;;;1.50;;
66189;SDS011;52992;52.084;5.412;2023-02-03T06:02:57;6.73;;;1.93;;
66189;SDS011;52992;52.084;5.412;2023-02-03T06:05:26;5.33;;;1.47;;
66189;SDS011;52992;52.084;5.412;2023-02-03T06:07:53;8.63;;;2.20;;
66189;SDS011;52992;52.084;5.412;2023-02-03T06:10:20;2.30;;;1.50;;
66189;SDS011;52992;52.084;5.412;2023-02-03T06:12:47;4.97;;;1.70;;
66189;SDS011;52992;52.084;5.412;2023-02-03T06:15:14;3.00;;;1.53;;
66189;SDS011;52992;52.084;5.412;2023-02-03T06:17:45;5.73;;;1.87;;
66189;SDS011;52992;52.084;5.412;2023-02-03T06:20:14;6.30;;;1.77;;
66189;SDS011;52992;52.084;5.412;2023-02-03T06:22:43;6.00;;;2.10;;
66189;SDS011;52992;52.084;5.412;2023-02-03T06:25:10;6.23;;;1.80;;
66189;SDS011;52992;52.084;5.412;2023-02-03T06:27:39;5.13;;;1.77;;
66189;SDS011;52992;52.084;5.412;2023-02-03T06:30:06;7.63;;;1.90;;
66189;SDS011;52992;52.084;5.412;2023-02-03T06:32:34;10.27;;;2.37;;
66189;SDS011;52992;52.084;5.412;2023-02-03T06:35:01;7.07;;;2.07;;
66189;SDS011;52992;52.084;5.412;2023-02-03T06:37:28;10.23;;;2.10;;
66189;SDS011;52992;52.084;5.412;2023-02-03T06:39:55;3.47;;;1.50;;
66189;SDS011;52992;52.084;5.412;2023-02-03T06:42:21;9.17;;;1.93;;
66189;SDS011;52992;52.084;5.412;2023-02-03T06:44:48;5.83;;;1.73;;
66189;SDS011;52992;52.084;5.412;2023-02-03T06:47:15;6.03;;;2.33;;
66189;SDS011;52992;52.084;5.412;2023-02-03T06:49:42;3.63;;;1.60;;
66189;SDS011;52992;52.084;5.412;2023-02-03T06:52:08;7.47;;;1.80;;
66189;SDS011;52992;52.084;5.412;2023-02-03T06:54:35;3.23;;;1.43;;
66189;SDS011;52992;52.084;5.412;2023-02-03T06:57:02;5.03;;;2.10;;
66189;SDS011;52992;52.084;5.412;2023-02-03T06:59:29;3.97;;;1.87;;
66189;SDS011;52992;52.084;5.412;2023-02-03T07:01:56;4.47;;;1.50;;
66189;SDS011;52992;52.084;5.412;2023-02-03T07:04:22;3.67;;;1.83;;
66189;SDS011;52992;52.084;5.412;2023-02-03T07:06:49;7.57;;;2.10;;
66189;SDS011;52992;52.084;5.412;2023-02-03T07:09:16;6.07;;;1.63;;
66189;SDS011;52992;52.084;5.412;2023-02-03T07:11:43;6.77;;;2.20;;
66189;SDS011;52992;52.084;5.412;2023-02-03T07:14:10;5.50;;;2.27;;
66189;SDS011;52992;52.084;5.412;2023-02-03T07:16:36;6.97;;;1.70;;
66189;SDS011;52992;52.084;5.412;2023-02-03T07:19:03;10.77;;;2.00;;
66189;SDS011;52992;52.084;5.412;2023-02-03T07:21:31;4.03;;;2.00;;
66189;SDS011;52992;52.084;5.412;2023-02-03T07:23:58;3.23;;;1.70;;
66189;SDS011;52992;52.084;5.412;2023-02-03T07:26:24;4.23;;;1.53;;
66189;SDS011;52992;52.084;5.412;2023-02-03T07:28:51;7.10;;;2.20;;
66189;SDS011;52992;52.084;5.412;2023-02-03T07:31:19;3.90;;;1.87;;
66189;SDS011;52992;52.084;5.412;2023-02-03T07:33:46;5.83;;;2.10;;
66189;SDS011;52992;52.084;5.412;2023-02-03T07:36:14;5.10;;;1.83;;
66189;SDS011;52992;52.084;5.412;2023-02-03T07:38:40;5.07;;;1.77;;
66189;SDS011;52992;52.084;5.412;2023-02-03T07:41:07;7.10;;;1.97;;
66189;SDS011;52992;52.084;5.412;2023-02-03T07:43:34;7.40;;;1.50;;
66189;SDS011;52992;52.084;5.412;2023-02-03T07:46:01;6.57;;;1.80;;
66189;SDS011;52992;52.084;5.412;2023-02-03T07:48:29;12.43;;;2.33;;
66189;SDS011;52992;52.084;5.412;2023-02-03T07:50:55;5.60;;;1.80;;
66189;SDS011;52992;52.084;5.412;2023-02-03T07:53:22;3.83;;;1.83;;
66189;SDS011;52992;52.084;5.412;2023-02-03T07:55:49;6.23;;;1.63;;
66189;SDS011;52992;52.084;5.412;2023-02-03T07:58:16;6.47;;;2.33;;
66189;SDS011;52992;52.084;5.412;2023-02-03T08:00:42;9.00;;;2.13;;
66189;SDS011;52992;52.084;5.412;2023-02-03T08:03:09;7.50;;;2.60;;
66189;SDS011;52992;52.084;5.412;2023-02-03T08:05:36;5.20;;;2.10;;
66189;SDS011;52992;52.084;5.412;2023-02-03T08:08:03;8.17;;;1.90;;
66189;SDS011;52992;52.084;5.412;2023-02-03T08:10:30;6.57;;;2.30;;
66189;SDS011;52992;52.084;5.412;2023-02-03T08:12:57;9.77;;;2.53;;
66189;SDS011;52992;52.084;5.412;2023-02-03T08:15:23;9.83;;;2.50;;
66189;SDS011;52992;52.084;5.412;2023-02-03T08:17:50;4.73;;;1.90;;
66189;SDS011;52992;52.084;5.412;2023-02-03T08:20:17;5.37;;;1.90;;
66189;SDS011;52992;52.084;5.412;2023-02-03T08:22:44;4.33;;;2.00;;
66189;SDS011;52992;52.084;5.412;2023-02-03T08:25:11;5.30;;;1.87;;
66189;SDS011;52992;52.084;5.412;2023-02-03T08:27:39;6.73;;;1.83;;
66189;SDS011;52992;52.084;5.412;2023-02-03T08:30:07;6.67;;;1.80;;
66189;SDS011;52992;52.084;5.412;2023-02-03T08:32:36;7.47;;;1.90;;
66189;SDS011;52992;52.084;5.412;2023-02-03T08:35:04;8.43;;;2.70;;
66189;SDS011;52992;52.084;5.412;2023-02-03T08:37:31;7.40;;;2.33;;
66189;SDS011;52992;52.084;5.412;2023-02-03T08:39:58;6.93;;;2.03;;
66189;SDS011;52992;52.084;5.412;2023-02-03T08:42:25;4.23;;;2.00;;
66189;SDS011;52992;52.084;5.412;2023-02-03T08:44:52;7.40;;;2.30;;
66189;SDS011;52992;52.084;5.412;2023-02-03T08:47:19;9.27;;;2.27;;
66189;SDS011;52992;52.084;5.412;2023-02-03T08:49:47;5.60;;;1.80;;
66189;SDS011;52992;52.084;5.412;2023-02-03T08:52:14;5.03;;;1.70;;
66189;SDS011;52992;52.084;5.412;2023-02-03T08:54:44;4.13;;;2.10;;
66189;SDS011;52992;52.084;5.412;2023-02-03T08:57:12;10.80;;;2.07;;
66189;SDS011;52992;52.084;5.412;2023-02-03T08:59:39;4.97;;;1.77;;
66189;SDS011;52992;52.084;5.412;2023-02-03T09:02:08;7.30;;;2.13;;
66189;SDS011;52992;52.084;5.412;2023-02-03T09:04:40;5.00;;;2.17;;
66189;SDS011;52992;52.084;5.412;2023-02-03T09:07:06;5.27;;;2.07;;
66189;SDS011;52992;52.084;5.412;2023-02-03T09:09:34;7.40;;;2.70;;
66189;SDS011;52992;52.084;5.412;2023-02-03T09:12:00;5.63;;;2.27;;
66189;SDS011;52992;52.084;5.412;2023-02-03T09:14:28;5.50;;;2.23;;
66189;SDS011;52992;52.084;5.412;2023-02-03T09:16:55;9.37;;;2.50;;
66189;SDS011;52992;52.084;5.412;2023-02-03T09:19:22;7.10;;;2.17;;
66189;SDS011;52992;52.084;5.412;2023-02-03T09:21:49;7.83;;;2.17;;
66189;SDS011;52992;52.084;5.412;2023-02-03T09:24:16;4.60;;;2.07;;
66189;SDS011;52992;52.084;5.412;2023-02-03T09:26:44;4.10;;;1.93;;
66189;SDS011;52992;52.084;5.412;2023-02-03T09:29:11;11.63;;;1.87;;
66189;SDS011;52992;52.084;5.412;2023-02-03T09:31:38;2.67;;;1.93;;
66189;SDS011;52992;52.084;5.412;2023-02-03T09:34:05;5.43;;;1.80;;
66189;SDS011;52992;52.084;5.412;2023-02-03T09:36:32;5.67;;;1.90;;
66189;SDS011;52992;52.084;5.412;2023-02-03T09:38:59;6.30;;;2.00;;
66189;SDS011;52992;52.084;5.412;2023-02-03T09:47:09;9.33;;;2.30;;
66189;SDS011;52992;52.084;5.412;2023-02-03T09:49:50;3.70;;;2.00;;
66189;SDS011;52992;52.084;5.412;2023-02-03T09:52:29;5.37;;;2.50;;
66189;SDS011;52992;52.084;5.412;2023-02-03T09:55:23;5.13;;;2.07;;
66189;SDS011;52992;52.084;5.412;2023-02-03T09:58:02;3.50;;;2.00;;
66189;SDS011;52992;52.084;5.412;2023-02-03T10:19:50;5.83;;;1.97;;
66189;SDS011;52992;52.084;5.412;2023-02-03T10:22:20;9.47;;;1.87;;
66189;SDS011;52992;52.084;5.412;2023-02-03T10:24:53;6.23;;;1.73;;
66189;SDS011;52992;52.084;5.412;2023-02-03T10:27:21;8.60;;;2.27;;
66189;SDS011;52992;52.084;5.412;2023-02-03T10:29:52;6.30;;;2.10;;
66189;SDS011;52992;52.084;5.412;2023-02-03T10:32:44;5.60;;;1.93;;
66189;SDS011;52992;52.084;5.412;2023-02-03T10:35:11;4.90;;;1.70;;
66189;SDS011;52992;52.084;5.412;2023-02-03T10:40:10;2.20;;;1.70;;
66189;SDS011;52992;52.084;5.412;2023-02-03T10:42:39;5.70;;;1.87;;
66189;SDS011;52992;52.084;5.412;2023-02-03T10:45:29;6.63;;;2.10;;
66189;SDS011;52992;52.084;5.412;2023-02-03T10:47:59;4.90;;;2.00;;
66189;SDS011;52992;52.084;5.412;2023-02-03T10:50:26;4.63;;;1.93;;
66189;SDS011;52992;52.084;5.412;2023-02-03T10:55:43;4.53;;;2.10;;
66189;SDS011;52992;52.084;5.412;2023-02-03T10:58:14;7.80;;;1.80;;
66189;SDS011;52992;52.084;5.412;2023-02-03T11:03:40;8.50;;;2.67;;
66189;SDS011;52992;52.084;5.412;2023-02-03T11:06:28;5.27;;;2.00;;
66189;SDS011;52992;52.084;5.412;2023-02-03T11:08:56;5.07;;;2.40;;
66189;SDS011;52992;52.084;5.412;2023-02-03T11:11:24;4.60;;;2.17;;
66189;SDS011;52992;52.084;5.412;2023-02-03T11:16:33;6.07;;;2.33;;
66189;SDS011;52992;52.084;5.412;2023-02-03T11:19:05;7.37;;;2.50;;
66189;SDS011;52992;52.084;5.412;2023-02-03T11:24:27;4.80;;;2.42;;
66189;SDS011;52992;52.084;5.412;2023-02-03T11:27:02;5.73;;;2.33;;
66189;SDS011;52992;52.084;5.412;2023-02-03T11:29:44;5.72;;;2.30;;
66189;SDS011;52992;52.084;5.412;2023-02-03T11:32:20;5.93;;;2.03;;
66189;SDS011;52992;52.084;5.412;2023-02-03T11:37:33;7.13;;;2.30;;
66189;SDS011;52992;52.084;5.412;2023-02-03T11:42:37;6.53;;;2.47;;
66189;SDS011;52992;52.084;5.412;2023-02-03T12:11:40;5.13;;;2.00;;
66189;SDS011;52992;52.084;5.412;2023-02-03T12:17:16;4.33;;;2.47;;
66189;SDS011;52992;52.084;5.412;2023-02-03T12:26:02;5.47;;;2.53;;
66189;SDS011;52992;52.084;5.412;2023-02-03T12:29:00;5.83;;;2.30;;
66189;SDS011;52992;52.084;5.412;2023-02-03T12:31:32;6.53;;;2.53;;
66189;SDS011;52992;52.084;5.412;2023-02-03T12:37:29;7.10;;;2.20;;
66189;SDS011;52992;52.084;5.412;2023-02-03T12:40:28;3.67;;;2.10;;
66189;SDS011;52992;52.084;5.412;2023-02-03T12:45:54;6.43;;;2.30;;
66189;SDS011;52992;52.084;5.412;2023-02-03T12:48:44;4.43;;;2.80;;
66189;SDS011;52992;52.084;5.412;2023-02-03T12:51:23;7.57;;;2.70;;
66189;SDS011;52992;52.084;5.412;2023-02-03T12:54:15;5.23;;;2.37;;
66189;SDS011;52992;52.084;5.412;2023-02-03T12:56:54;6.37;;;2.57;;
66189;SDS011;52992;52.084;5.412;2023-02-03T12:59:27;6.50;;;2.57;;
66189;SDS011;52992;52.084;5.412;2023-02-03T13:01:58;6.53;;;2.40;;
66189;SDS011;52992;52.084;5.412;2023-02-03T13:07:32;11.23;;;2.67;;
66189;SDS011;52992;52.084;5.412;2023-02-03T13:10:13;9.27;;;2.50;;
66189;SDS011;52992;52.084;5.412;2023-02-03T13:12:48;7.93;;;2.70;;
66189;SDS011;52992;52.084;5.412;2023-02-03T13:15:27;10.40;;;3.03;;
66189;SDS011;52992;52.084;5.412;2023-02-03T13:20:51;6.67;;;2.60;;
66189;SDS011;52992;52.084;5.412;2023-02-03T13:23:19;6.90;;;2.80;;
66189;SDS011;52992;52.084;5.412;2023-02-03T13:28:30;8.57;;;3.20;;
66189;SDS011;52992;52.084;5.412;2023-02-03T13:37:09;8.60;;;3.27;;
66189;SDS011;52992;52.084;5.412;2023-02-03T13:39:44;8.30;;;2.70;;
66189;SDS011;52992;52.084;5.412;2023-02-03T13:42:31;9.07;;;3.57;;
66189;SDS011;52992;52.084;5.412;2023-02-03T13:48:19;8.37;;;3.23;;
66189;SDS011;52992;52.084;5.412;2023-02-03T13:50:50;7.40;;;2.97;;
66189;SDS011;52992;52.084;5.412;2023-02-03T13:53:30;7.20;;;2.93;;
66189;SDS011;52992;52.084;5.412;2023-02-03T13:56:03;14.50;;;3.87;;
66189;SDS011;52992;52.084;5.412;2023-02-03T13:58:33;6.77;;;2.77;;
66189;SDS011;52992;52.084;5.412;2023-02-03T14:03:51;14.00;;;4.83;;
66189;SDS011;52992;52.084;5.412;2023-02-03T14:09:20;12.23;;;3.20;;
66189;SDS011;52992;52.084;5.412;2023-02-03T14:15:12;9.17;;;3.37;;
66189;SDS011;52992;52.084;5.412;2023-02-03T14:22:51;11.60;;;3.13;;
66189;SDS011;52992;52.084;5.412;2023-02-03T14:25:20;10.50;;;3.30;;
66189;SDS011;52992;52.084;5.412;2023-02-03T14:27:48;15.70;;;2.90;;
66189;SDS011;52992;52.084;5.412;2023-02-03T14:30:26;9.37;;;3.67;;
66189;SDS011;52992;52.084;5.412;2023-02-03T14:32:53;14.10;;;3.30;;
66189;SDS011;52992;52.084;5.412;2023-02-03T14:35:34;16.30;;;2.87;;
66189;SDS011;52992;52.084;5.412;2023-02-03T14:38:06;9.47;;;3.57;;
66189;SDS011;52992;52.084;5.412;2023-02-03T14:40:55;7.80;;;2.90;;
66189;SDS011;52992;52.084;5.412;2023-02-03T14:43:31;9.27;;;2.67;;
66189;SDS011;52992;52.084;5.412;2023-02-03T14:46:10;16.20;;;3.50;;
66189;SDS011;52992;52.084;5.412;2023-02-03T15:00:02;7.33;;;2.93;;
66189;SDS011;52992;52.084;5.412;2023-02-03T15:02:33;13.83;;;3.17;;
66189;SDS011;52992;52.084;5.412;2023-02-03T15:07:40;10.73;;;2.83;;
66189;SDS011;52992;52.084;5.412;2023-02-03T15:10:15;11.93;;;2.80;;
66189;SDS011;52992;52.084;5.412;2023-02-03T15:12:46;16.40;;;3.00;;
66189;SDS011;52992;52.084;5.412;2023-02-03T15:15:19;13.00;;;2.97;;
66189;SDS011;52992;52.084;5.412;2023-02-03T15:17:53;12.47;;;3.07;;
66189;SDS011;52992;52.084;5.412;2023-02-03T15:20:23;11.37;;;3.03;;
66189;SDS011;52992;52.084;5.412;2023-02-03T15:22:57;10.87;;;3.13;;
66189;SDS011;52992;52.084;5.412;2023-02-03T15:25:24;13.03;;;3.57;;
66189;SDS011;52992;52.084;5.412;2023-02-03T15:28:08;15.33;;;3.10;;
66189;SDS011;52992;52.084;5.412;2023-02-03T15:30:42;11.80;;;3.20;;
66189;SDS011;52992;52.084;5.412;2023-02-03T15:33:14;14.93;;;3.20;;
66189;SDS011;52992;52.084;5.412;2023-02-03T15:35:46;19.73;;;3.93;;
66189;SDS011;52992;52.084;5.412;2023-02-03T15:38:30;21.40;;;3.37;;
66189;SDS011;52992;52.084;5.412;2023-02-03T15:41:03;7.37;;;2.77;;
66189;SDS011;52992;52.084;5.412;2023-02-03T15:43:40;13.80;;;3.30;;
66189;SDS011;52992;52.084;5.412;2023-02-03T15:46:33;11.80;;;3.17;;
66189;SDS011;52992;52.084;5.412;2023-02-03T15:51:44;18.10;;;3.07;;
66189;SDS011;52992;52.084;5.412;2023-02-03T15:54:36;20.87;;;3.40;;
66189;SDS011;52992;52.084;5.412;2023-02-03T15:57:09;15.80;;;3.33;;
66189;SDS011;52992;52.084;5.412;2023-02-03T15:59:52;18.87;;;3.50;;
66189;SDS011;52992;52.084;5.412;2023-02-03T16:02:43;15.73;;;3.70;;
66189;SDS011;52992;52.084;5.412;2023-02-03T16:05:18;12.43;;;3.60;;
66189;SDS011;52992;52.084;5.412;2023-02-03T16:07:48;13.50;;;3.10;;
66189;SDS011;52992;52.084;5.412;2023-02-03T16:10:31;16.30;;;5.27;;
66189;SDS011;52992;52.084;5.412;2023-02-03T16:16:13;27.30;;;5.03;;
66189;SDS011;52992;52.084;5.412;2023-02-03T16:18:53;14.97;;;3.70;;
66189;SDS011;52992;52.084;5.412;2023-02-03T16:23:57;21.90;;;4.10;;
66189;SDS011;52992;52.084;5.412;2023-02-03T16:26:25;14.67;;;3.53;;
66189;SDS011;52992;52.084;5.412;2023-02-03T16:31:47;15.47;;;3.70;;
66189;SDS011;52992;52.084;5.412;2023-02-03T16:34:34;12.60;;;3.77;;
66189;SDS011;52992;52.084;5.412;2023-02-03T16:37:23;11.00;;;3.73;;
66189;SDS011;52992;52.084;5.412;2023-02-03T16:40:16;17.23;;;5.30;;
66189;SDS011;52992;52.084;5.412;2023-02-03T16:43:04;14.07;;;3.50;;
66189;SDS011;52992;52.084;5.412;2023-02-03T16:45:56;10.93;;;2.30;;
66189;SDS011;52992;52.084;5.412;2023-02-03T16:48:42;15.50;;;3.83;;
66189;SDS011;52992;52.084;5.412;2023-02-03T16:51:39;12.57;;;3.53;;
66189;SDS011;52992;52.084;5.412;2023-02-03T16:54:10;13.27;;;2.73;;
66189;SDS011;52992;52.084;5.412;2023-02-03T16:56:38;17.63;;;4.50;;
66189;SDS011;52992;52.084;5.412;2023-02-03T16:59:05;12.30;;;3.33;;
66189;SDS011;52992;52.084;5.412;2023-02-03T17:01:32;17.87;;;3.47;;
66189;SDS011;52992;52.084;5.412;2023-02-03T17:03:59;15.63;;;3.60;;
66189;SDS011;52992;52.084;5.412;2023-02-03T17:06:26;11.47;;;3.50;;
66189;SDS011;52992;52.084;5.412;2023-02-03T17:08:53;9.37;;;2.97;;
66189;SDS011;52992;52.084;5.412;2023-02-03T17:11:23;11.20;;;3.47;;
66189;SDS011;52992;52.084;5.412;2023-02-03T17:13:50;15.30;;;3.87;;
66189;SDS011;52992;52.084;5.412;2023-02-03T17:16:21;18.73;;;5.40;;
66189;SDS011;52992;52.084;5.412;2023-02-03T17:18:49;18.27;;;6.17;;
66189;SDS011;52992;52.084;5.412;2023-02-03T17:21:18;18.27;;;4.27;;
66189;SDS011;52992;52.084;5.412;2023-02-03T17:23:47;12.63;;;4.20;;
66189;SDS011;52992;52.084;5.412;2023-02-03T17:26:14;19.80;;;3.50;;
66189;SDS011;52992;52.084;5.412;2023-02-03T17:28:41;21.43;;;5.73;;
66189;SDS011;52992;52.084;5.412;2023-02-03T17:31:13;11.17;;;4.33;;
66189;SDS011;52992;52.084;5.412;2023-02-03T17:33:42;21.47;;;6.03;;
66189;SDS011;52992;52.084;5.412;2023-02-03T17:36:11;15.30;;;4.60;;
66189;SDS011;52992;52.084;5.412;2023-02-03T17:38:41;17.07;;;5.43;;
66189;SDS011;52992;52.084;5.412;2023-02-03T17:41:30;16.47;;;6.93;;
66189;SDS011;52992;52.084;5.412;2023-02-03T17:44:14;12.20;;;4.50;;
66189;SDS011;52992;52.084;5.412;2023-02-03T17:46:59;13.17;;;5.13;;
66189;SDS011;52992;52.084;5.412;2023-02-03T17:49:44;14.70;;;4.30;;
66189;SDS011;52992;52.084;5.412;2023-02-03T17:52:29;13.23;;;4.67;;
66189;SDS011;52992;52.084;5.412;2023-02-03T17:55:13;21.77;;;6.20;;
66189;SDS011;52992;52.084;5.412;2023-02-03T17:57:40;19.73;;;4.60;;